sensor_id;sensor_type;location;lat;lon;timestamp;pressure;altitude;pressure_sealevel;temperature;humidity
54948;BME280;41113;41.882;12.530;2023-03-25T00:00:19;101251.06;;;13.66;82.39
54948;BME280;41113;41.882;12.530;2023-03-25T00:02:50;101251.06;;;13.37;83.75
54948;BME280;41113;41.882;12.530;2023-03-25T00:05:19;101253.28;;;13.32;84.47
54948;BME280;41113;41.882;12.530;2023-03-25T00:07:48;101264.09;;;13.32;84.21
54948;BME280;41113;41.882;12.530;2023-03-25T00:10:13;101257.16;;;13.39;84.21
54948;BME280;41113;41.882;12.530;2023-03-25T00:12:40;101256.59;;;13.46;83.44
54948;BME280;41113;41.882;12.530;2023-03-25T00:15:07;101243.38;;;13.52;83.34
54948;BME280;41113;41.882;12.530;2023-03-25T00:17:33;101237.72;;;13.46;83.37
54948;BME280;41113;41.882;12.530;2023-03-25T00:20:00;101220.53;;;13.37;84.44
54948;BME280;41113;41.882;12.530;2023-03-25T00:22:29;101217.81;;;13.47;83.84
54948;BME280;41113;41.882;12.530;2023-03-25T00:24:54;101202.19;;;13.60;83.28
54948;BME280;41113;41.882;12.530;2023-03-25T00:27:20;101209.59;;;13.67;82.50
54948;BME280;41113;41.882;12.530;2023-03-25T00:29:45;101210.00;;;13.73;82.30
54948;BME280;41113;41.882;12.530;2023-03-25T00:32:13;101215.81;;;13.78;81.90
54948;BME280;41113;41.882;12.530;2023-03-25T00:34:40;101222.38;;;13.75;82.02
54948;BME280;41113;41.882;12.530;2023-03-25T00:37:12;101222.50;;;13.64;81.77
54948;BME280;41113;41.882;12.530;2023-03-25T00:39:42;101200.34;;;13.70;81.86
54948;BME280;41113;41.882;12.530;2023-03-25T00:42:07;101189.25;;;13.73;81.39
54948;BME280;41113;41.882;12.530;2023-03-25T00:44:35;101181.72;;;13.77;80.96
54948;BME280;41113;41.882;12.530;2023-03-25T00:47:00;101184.56;;;13.75;80.73
54948;BME280;41113;41.882;12.530;2023-03-25T00:49:26;101192.97;;;13.72;80.39
54948;BME280;41113;41.882;12.530;2023-03-25T00:51:53;101191.97;;;13.73;79.60
54948;BME280;41113;41.882;12.530;2023-03-25T00:54:18;101187.41;;;13.74;79.22
54948;BME280;41113;41.882;12.530;2023-03-25T00:56:46;101184.31;;;13.68;79.01
54948;BME280;41113;41.882;12.530;2023-03-25T00:59:12;101182.59;;;13.58;78.29
54948;BME280;41113;41.882;12.530;2023-03-25T01:01:37;101198.06;;;13.56;78.56
54948;BME280;41113;41.882;12.530;2023-03-25T01:04:04;101203.06;;;13.51;78.66
54948;BME280;41113;41.882;12.530;2023-03-25T01:06:37;101205.34;;;13.46;78.75
54948;BME280;41113;41.882;12.530;2023-03-25T01:09:05;101196.09;;;13.38;77.96
54948;BME280;41113;41.882;12.530;2023-03-25T01:11:34;101180.03;;;13.27;78.63
54948;BME280;41113;41.882;12.530;2023-03-25T01:14:01;101172.25;;;13.44;78.75
54948;BME280;41113;41.882;12.530;2023-03-25T01:16:28;101174.50;;;13.48;78.21
54948;BME280;41113;41.882;12.530;2023-03-25T01:18:54;101182.75;;;13.27;78.59
54948;BME280;41113;41.882;12.530;2023-03-25T01:21:20;101177.22;;;13.19;79.60
54948;BME280;41113;41.882;12.530;2023-03-25T01:23:46;101167.69;;;13.25;79.71
54948;BME280;41113;41.882;12.530;2023-03-25T01:26:11;101159.34;;;13.37;79.07
54948;BME280;41113;41.882;12.530;2023-03-25T01:28:41;101157.31;;;13.49;78.75
54948;BME280;41113;41.882;12.530;2023-03-25T01:31:09;101163.56;;;13.50;78.24
54948;BME280;41113;41.882;12.530;2023-03-25T01:33:34;101160.75;;;13.42;78.60
54948;BME280;41113;41.882;12.530;2023-03-25T01:36:00;101165.56;;;13.28;78.99
54948;BME280;41113;41.882;12.530;2023-03-25T01:38:26;101174.63;;;13.08;79.55
54948;BME280;41113;41.882;12.530;2023-03-25T01:40:53;101180.16;;;13.06;79.88
54948;BME280;41113;41.882;12.530;2023-03-25T01:43:19;101182.00;;;13.16;79.71
54948;BME280;41113;41.882;12.530;2023-03-25T01:45:45;101175.63;;;13.26;79.59
54948;BME280;41113;41.882;12.530;2023-03-25T01:48:22;101183.13;;;13.13;79.06
54948;BME280;41113;41.882;12.530;2023-03-25T01:50:57;101175.47;;;13.08;79.28
54948;BME280;41113;41.882;12.530;2023-03-25T01:53:26;101176.03;;;13.12;79.47
54948;BME280;41113;41.882;12.530;2023-03-25T01:55:53;101169.22;;;13.08;79.18
54948;BME280;41113;41.882;12.530;2023-03-25T01:58:21;101155.19;;;13.04;79.43
54948;BME280;41113;41.882;12.530;2023-03-25T02:00:48;101159.88;;;13.02;79.81
54948;BME280;41113;41.882;12.530;2023-03-25T02:03:16;101161.97;;;12.99;80.01
54948;BME280;41113;41.882;12.530;2023-03-25T02:05:53;101159.25;;;12.99;80.31
54948;BME280;41113;41.882;12.530;2023-03-25T02:08:21;101173.72;;;12.98;80.39
54948;BME280;41113;41.882;12.530;2023-03-25T02:10:48;101165.50;;;12.90;80.80
54948;BME280;41113;41.882;12.530;2023-03-25T02:13:15;101155.56;;;12.81;81.14
54948;BME280;41113;41.882;12.530;2023-03-25T02:18:37;101158.81;;;12.84;81.16
54948;BME280;41113;41.882;12.530;2023-03-25T02:24:11;101142.50;;;12.86;82.08
54948;BME280;41113;41.882;12.530;2023-03-25T02:27:09;101133.44;;;12.87;82.14
54948;BME280;41113;41.882;12.530;2023-03-25T02:37:59;101151.03;;;13.00;82.80
54948;BME280;41113;41.882;12.530;2023-03-25T02:40:37;101155.19;;;13.14;82.31
54948;BME280;41113;41.882;12.530;2023-03-25T02:43:22;101151.94;;;13.20;82.05
54948;BME280;41113;41.882;12.530;2023-03-25T02:45:51;101143.69;;;13.12;84.18
54948;BME280;41113;41.882;12.530;2023-03-25T02:48:24;101144.97;;;13.08;83.93
54948;BME280;41113;41.882;12.530;2023-03-25T02:50:55;101140.56;;;13.07;84.35
54948;BME280;41113;41.882;12.530;2023-03-25T02:53:26;101136.00;;;13.07;84.84
54948;BME280;41113;41.882;12.530;2023-03-25T02:55:58;101126.38;;;13.05;85.40
54948;BME280;41113;41.882;12.530;2023-03-25T02:58:26;101131.47;;;13.08;85.82
54948;BME280;41113;41.882;12.530;2023-03-25T03:00:52;101124.94;;;13.11;85.07
54948;BME280;41113;41.882;12.530;2023-03-25T03:03:18;101131.47;;;13.08;85.82
54948;BME280;41113;41.882;12.530;2023-03-25T03:05:45;101137.69;;;12.99;86.86
54948;BME280;41113;41.882;12.530;2023-03-25T03:08:29;101132.63;;;13.05;86.26
54948;BME280;41113;41.882;12.530;2023-03-25T03:11:15;101128.06;;;13.06;86.30
54948;BME280;41113;41.882;12.530;2023-03-25T03:22:10;101143.25;;;13.07;86.73
54948;BME280;41113;41.882;12.530;2023-03-25T03:24:50;101142.97;;;13.10;86.47
54948;BME280;41113;41.882;12.530;2023-03-25T03:27:18;101128.34;;;13.03;86.15
54948;BME280;41113;41.882;12.530;2023-03-25T03:35:20;101153.84;;;12.80;84.91
54948;BME280;41113;41.882;12.530;2023-03-25T03:37:53;101147.16;;;12.64;84.43
54948;BME280;41113;41.882;12.530;2023-03-25T03:40:22;101148.66;;;12.38;85.40
54948;BME280;41113;41.882;12.530;2023-03-25T03:42:55;101154.84;;;12.29;85.45
54948;BME280;41113;41.882;12.530;2023-03-25T03:45:27;101158.03;;;12.13;86.20
54948;BME280;41113;41.882;12.530;2023-03-25T03:47:54;101160.72;;;12.13;85.55
54948;BME280;41113;41.882;12.530;2023-03-25T03:50:38;101148.84;;;12.15;85.11
54948;BME280;41113;41.882;12.530;2023-03-25T03:53:11;101139.50;;;12.20;84.97
54948;BME280;41113;41.882;12.530;2023-03-25T03:55:51;101142.81;;;12.02;85.13
54948;BME280;41113;41.882;12.530;2023-03-25T03:58:25;101138.69;;;11.98;85.82
54948;BME280;41113;41.882;12.530;2023-03-25T04:03:40;101138.41;;;12.01;85.38
54948;BME280;41113;41.882;12.530;2023-03-25T04:06:19;101142.56;;;12.05;85.33
54948;BME280;41113;41.882;12.530;2023-03-25T04:09:27;101149.00;;;11.93;85.26
54948;BME280;41113;41.882;12.530;2023-03-25T04:11:54;101149.28;;;11.90;85.47
54948;BME280;41113;41.882;12.530;2023-03-25T04:14:22;101150.44;;;11.97;85.85
54948;BME280;41113;41.882;12.530;2023-03-25T04:16:47;101151.88;;;12.01;85.43
54948;BME280;41113;41.882;12.530;2023-03-25T04:19:13;101144.06;;;11.98;85.22
54948;BME280;41113;41.882;12.530;2023-03-25T04:21:43;101149.03;;;12.03;85.41
54948;BME280;41113;41.882;12.530;2023-03-25T04:24:08;101145.44;;;12.13;85.19
54948;BME280;41113;41.882;12.530;2023-03-25T04:26:35;101146.03;;;12.27;84.32
54948;BME280;41113;41.882;12.530;2023-03-25T04:29:03;101153.69;;;12.22;84.62
54948;BME280;41113;41.882;12.530;2023-03-25T04:31:29;101151.66;;;12.14;85.10
54948;BME280;41113;41.882;12.530;2023-03-25T04:33:58;101161.13;;;12.08;85.71
54948;BME280;41113;41.882;12.530;2023-03-25T04:36:25;101162.59;;;11.92;86.21
54948;BME280;41113;41.882;12.530;2023-03-25T04:38:55;101163.31;;;11.73;87.22
54948;BME280;41113;41.882;12.530;2023-03-25T04:41:23;101171.75;;;11.68;87.98
54948;BME280;41113;41.882;12.530;2023-03-25T04:43:49;101169.91;;;11.69;89.11
54948;BME280;41113;41.882;12.530;2023-03-25T04:46:16;101167.19;;;11.59;89.06
54948;BME280;41113;41.882;12.530;2023-03-25T04:48:42;101164.81;;;11.66;88.77
54948;BME280;41113;41.882;12.530;2023-03-25T04:51:10;101163.09;;;11.65;88.95
54948;BME280;41113;41.882;12.530;2023-03-25T04:53:36;101160.41;;;11.65;86.76
54948;BME280;41113;41.882;12.530;2023-03-25T04:56:03;101167.72;;;11.74;86.28
54948;BME280;41113;41.882;12.530;2023-03-25T04:58:30;101164.03;;;11.75;85.80
54948;BME280;41113;41.882;12.530;2023-03-25T05:00:55;101167.41;;;11.88;85.32
54948;BME280;41113;41.882;12.530;2023-03-25T05:03:30;101172.31;;;11.83;84.18
54948;BME280;41113;41.882;12.530;2023-03-25T05:05:55;101168.09;;;11.69;82.28
54948;BME280;41113;41.882;12.530;2023-03-25T05:08:21;101175.38;;;11.58;82.51
54948;BME280;41113;41.882;12.530;2023-03-25T05:10:46;101181.16;;;11.53;82.50
54948;BME280;41113;41.882;12.530;2023-03-25T05:13:12;101177.94;;;11.38;81.09
54948;BME280;41113;41.882;12.530;2023-03-25T05:15:38;101165.44;;;11.37;81.90
54948;BME280;41113;41.882;12.530;2023-03-25T05:18:14;101167.81;;;11.31;81.58
54948;BME280;41113;41.882;12.530;2023-03-25T05:20:42;101178.72;;;11.50;81.64
54948;BME280;41113;41.882;12.530;2023-03-25T05:23:09;101180.97;;;11.45;80.79
54948;BME280;41113;41.882;12.530;2023-03-25T05:25:47;101185.53;;;11.54;79.69
54948;BME280;41113;41.882;12.530;2023-03-25T05:28:14;101186.69;;;11.93;79.93
54948;BME280;41113;41.882;12.530;2023-03-25T05:30:41;101191.16;;;11.83;78.37
54948;BME280;41113;41.882;12.530;2023-03-25T05:33:11;101198.97;;;11.86;77.17
54948;BME280;41113;41.882;12.530;2023-03-25T05:35:39;101197.72;;;11.90;78.13
54948;BME280;41113;41.882;12.530;2023-03-25T05:38:06;101199.69;;;11.88;77.31
54948;BME280;41113;41.882;12.530;2023-03-25T05:40:37;101202.13;;;11.91;78.28
54948;BME280;41113;41.882;12.530;2023-03-25T05:43:02;101199.97;;;11.85;77.83
54948;BME280;41113;41.882;12.530;2023-03-25T05:45:28;101193.06;;;11.92;78.04
54948;BME280;41113;41.882;12.530;2023-03-25T05:47:53;101201.09;;;11.82;77.45
54948;BME280;41113;41.882;12.530;2023-03-25T05:50:19;101194.13;;;11.69;78.45
54948;BME280;41113;41.882;12.530;2023-03-25T05:52:46;101199.28;;;11.72;78.75
54948;BME280;41113;41.882;12.530;2023-03-25T05:55:19;101195.16;;;11.89;78.11
54948;BME280;41113;41.882;12.530;2023-03-25T05:57:45;101195.88;;;12.11;76.50
54948;BME280;41113;41.882;12.530;2023-03-25T06:00:12;101190.75;;;12.39;76.23
54948;BME280;41113;41.882;12.530;2023-03-25T06:02:38;101186.19;;;12.70;73.80
54948;BME280;41113;41.882;12.530;2023-03-25T06:05:09;101189.53;;;13.12;73.85
54948;BME280;41113;41.882;12.530;2023-03-25T06:07:44;101180.31;;;13.24;70.99
54948;BME280;41113;41.882;12.530;2023-03-25T06:10:11;101180.25;;;14.01;69.93
54948;BME280;41113;41.882;12.530;2023-03-25T06:12:37;101181.41;;;13.89;69.25
54948;BME280;41113;41.882;12.530;2023-03-25T06:15:10;101172.78;;;13.76;68.75
54948;BME280;41113;41.882;12.530;2023-03-25T06:17:36;101177.84;;;13.98;69.08
54948;BME280;41113;41.882;12.530;2023-03-25T06:20:09;101177.41;;;13.93;68.85
54948;BME280;41113;41.882;12.530;2023-03-25T06:22:41;101170.44;;;14.00;68.57
54948;BME280;41113;41.882;12.530;2023-03-25T06:25:08;101167.25;;;13.68;68.40
54948;BME280;41113;41.882;12.530;2023-03-25T06:27:35;101162.53;;;13.80;68.73
54948;BME280;41113;41.882;12.530;2023-03-25T06:30:06;101164.69;;;13.57;69.71
54948;BME280;41113;41.882;12.530;2023-03-25T06:32:32;101181.16;;;13.63;69.23
54948;BME280;41113;41.882;12.530;2023-03-25T06:34:57;101185.16;;;13.40;69.88
54948;BME280;41113;41.882;12.530;2023-03-25T06:37:22;101188.56;;;13.23;70.00
54948;BME280;41113;41.882;12.530;2023-03-25T06:39:50;101196.09;;;13.19;71.18
54948;BME280;41113;41.882;12.530;2023-03-25T06:42:21;101201.94;;;13.44;70.79
54948;BME280;41113;41.882;12.530;2023-03-25T06:44:46;101201.91;;;13.53;70.74
54948;BME280;41113;41.882;12.530;2023-03-25T06:47:12;101200.22;;;13.43;70.62
54948;BME280;41113;41.882;12.530;2023-03-25T06:49:37;101199.34;;;13.52;71.27
54948;BME280;41113;41.882;12.530;2023-03-25T06:52:02;101204.06;;;13.69;71.06
54948;BME280;41113;41.882;12.530;2023-03-25T06:54:28;101193.38;;;13.77;70.09
54948;BME280;41113;41.882;12.530;2023-03-25T06:56:53;101186.44;;;13.46;71.20
54948;BME280;41113;41.882;12.530;2023-03-25T06:59:18;101184.44;;;13.67;71.13
54948;BME280;41113;41.882;12.530;2023-03-25T07:01:44;101178.63;;;13.52;70.43
54948;BME280;41113;41.882;12.530;2023-03-25T07:04:10;101178.06;;;13.49;71.51
54948;BME280;41113;41.882;12.530;2023-03-25T07:06:36;101187.16;;;13.67;71.29
54948;BME280;41113;41.882;12.530;2023-03-25T07:09:02;101185.81;;;14.00;71.31
54948;BME280;41113;41.882;12.530;2023-03-25T07:11:28;101193.53;;;14.22;71.19
54948;BME280;41113;41.882;12.530;2023-03-25T07:13:54;101192.63;;;14.41;71.18
54948;BME280;41113;41.882;12.530;2023-03-25T07:16:21;101192.66;;;14.69;70.48
54948;BME280;41113;41.882;12.530;2023-03-25T07:18:47;101200.97;;;14.85;70.18
54948;BME280;41113;41.882;12.530;2023-03-25T07:21:12;101207.56;;;15.00;70.07
54948;BME280;41113;41.882;12.530;2023-03-25T07:23:38;101207.66;;;15.08;70.28
54948;BME280;41113;41.882;12.530;2023-03-25T07:26:03;101211.97;;;15.01;71.63
54948;BME280;41113;41.882;12.530;2023-03-25T07:28:29;101212.75;;;15.11;72.03
54948;BME280;41113;41.882;12.530;2023-03-25T07:30:54;101192.19;;;15.18;72.18
54948;BME280;41113;41.882;12.530;2023-03-25T07:33:20;101199.31;;;15.19;72.51
54948;BME280;41113;41.882;12.530;2023-03-25T07:35:45;101195.44;;;15.22;73.13
54948;BME280;41113;41.882;12.530;2023-03-25T07:38:10;101190.66;;;15.34;72.91
54948;BME280;41113;41.882;12.530;2023-03-25T07:40:36;101189.41;;;15.46;72.42
54948;BME280;41113;41.882;12.530;2023-03-25T07:43:02;101175.91;;;15.64;72.12
54948;BME280;41113;41.882;12.530;2023-03-25T07:45:27;101181.22;;;15.73;72.38
54948;BME280;41113;41.882;12.530;2023-03-25T07:47:53;101178.56;;;15.81;72.63
54948;BME280;41113;41.882;12.530;2023-03-25T07:50:21;101182.44;;;15.79;73.43
54948;BME280;41113;41.882;12.530;2023-03-25T07:52:47;101188.69;;;15.97;75.19
54948;BME280;41113;41.882;12.530;2023-03-25T07:55:13;101194.41;;;16.20;73.90
54948;BME280;41113;41.882;12.530;2023-03-25T07:57:39;101192.16;;;16.41;72.45
54948;BME280;41113;41.882;12.530;2023-03-25T08:00:06;101204.06;;;16.57;72.13
54948;BME280;41113;41.882;12.530;2023-03-25T08:02:32;101208.41;;;16.67;71.66
54948;BME280;41113;41.882;12.530;2023-03-25T08:04:57;101203.19;;;16.82;71.31
54948;BME280;41113;41.882;12.530;2023-03-25T08:07:24;101213.69;;;16.77;71.33
54948;BME280;41113;41.882;12.530;2023-03-25T08:09:49;101217.59;;;16.74;71.45
54948;BME280;41113;41.882;12.530;2023-03-25T08:12:14;101189.13;;;16.78;71.78
54948;BME280;41113;41.882;12.530;2023-03-25T08:14:40;101192.75;;;16.95;71.37
54948;BME280;41113;41.882;12.530;2023-03-25T08:17:05;101184.97;;;17.08;70.94
54948;BME280;41113;41.882;12.530;2023-03-25T08:19:31;101190.91;;;17.12;70.95
54948;BME280;41113;41.882;12.530;2023-03-25T08:21:57;101189.06;;;17.21;70.71
54948;BME280;41113;41.882;12.530;2023-03-25T08:24:22;101193.13;;;17.17;70.63
54948;BME280;41113;41.882;12.530;2023-03-25T08:26:49;101189.44;;;17.26;70.54
54948;BME280;41113;41.882;12.530;2023-03-25T08:29:15;101191.41;;;17.16;70.59
54948;BME280;41113;41.882;12.530;2023-03-25T08:31:43;101197.53;;;17.09;71.16
54948;BME280;41113;41.882;12.530;2023-03-25T08:34:11;101186.47;;;16.95;70.95
54948;BME280;41113;41.882;12.530;2023-03-25T08:36:37;101198.34;;;17.02;71.14
54948;BME280;41113;41.882;12.530;2023-03-25T08:39:03;101192.78;;;17.11;70.83
54948;BME280;41113;41.882;12.530;2023-03-25T08:41:33;101188.03;;;17.14;70.50
54948;BME280;41113;41.882;12.530;2023-03-25T08:43:59;101185.66;;;17.10;70.37
54948;BME280;41113;41.882;12.530;2023-03-25T08:46:24;101183.28;;;17.07;70.42
54948;BME280;41113;41.882;12.530;2023-03-25T08:48:49;101173.25;;;17.00;70.29
54948;BME280;41113;41.882;12.530;2023-03-25T08:51:15;101157.16;;;17.15;70.26
54948;BME280;41113;41.882;12.530;2023-03-25T08:53:40;101157.34;;;17.37;69.67
54948;BME280;41113;41.882;12.530;2023-03-25T08:56:06;101156.34;;;17.47;69.07
54948;BME280;41113;41.882;12.530;2023-03-25T08:58:31;101160.59;;;17.33;69.75
54948;BME280;41113;41.882;12.530;2023-03-25T09:00:58;101161.59;;;17.24;70.02
54948;BME280;41113;41.882;12.530;2023-03-25T09:03:24;101171.22;;;17.10;70.57
54948;BME280;41113;41.882;12.530;2023-03-25T09:05:51;101173.09;;;17.09;70.59
54948;BME280;41113;41.882;12.530;2023-03-25T09:08:16;101186.00;;;17.16;70.33
54948;BME280;41113;41.882;12.530;2023-03-25T09:10:42;101210.78;;;17.21;70.31
54948;BME280;41113;41.882;12.530;2023-03-25T09:13:08;101205.56;;;17.27;69.97
54948;BME280;41113;41.882;12.530;2023-03-25T09:15:34;101212.50;;;17.38;69.74
54948;BME280;41113;41.882;12.530;2023-03-25T09:18:00;101206.22;;;17.54;69.23
54948;BME280;41113;41.882;12.530;2023-03-25T09:20:26;101195.22;;;17.88;67.98
54948;BME280;41113;41.882;12.530;2023-03-25T09:22:52;101198.06;;;18.27;66.86
54948;BME280;41113;41.882;12.530;2023-03-25T09:25:17;101194.47;;;18.34;66.39
54948;BME280;41113;41.882;12.530;2023-03-25T09:27:42;101196.81;;;18.46;65.71
54948;BME280;41113;41.882;12.530;2023-03-25T09:30:08;101194.03;;;18.70;65.16
54948;BME280;41113;41.882;12.530;2023-03-25T09:32:34;101183.47;;;18.75;65.12
54948;BME280;41113;41.882;12.530;2023-03-25T09:34:59;101193.03;;;18.63;65.37
54948;BME280;41113;41.882;12.530;2023-03-25T09:37:25;101192.38;;;18.45;65.44
54948;BME280;41113;41.882;12.530;2023-03-25T09:39:51;101188.19;;;18.34;66.00
54948;BME280;41113;41.882;12.530;2023-03-25T09:47:18;101195.28;;;18.43;66.26
54948;BME280;41113;41.882;12.530;2023-03-25T09:49:47;101193.06;;;18.47;66.13
54948;BME280;41113;41.882;12.530;2023-03-25T09:52:23;101197.03;;;18.83;65.34
54948;BME280;41113;41.882;12.530;2023-03-25T09:54:57;101194.84;;;19.10;64.77
54948;BME280;41113;41.882;12.530;2023-03-25T09:57:28;101195.00;;;19.39;64.07
54948;BME280;41113;41.882;12.530;2023-03-25T09:59:58;101205.94;;;19.62;63.30
54948;BME280;41113;41.882;12.530;2023-03-25T10:02:35;101203.75;;;19.57;62.64
54948;BME280;41113;41.882;12.530;2023-03-25T10:08:20;101211.94;;;19.49;62.33
54948;BME280;41113;41.882;12.530;2023-03-25T10:12:05;101204.72;;;19.65;61.15
54948;BME280;41113;41.882;12.530;2023-03-25T10:14:10;101196.63;;;19.94;61.35
54948;BME280;41113;41.882;12.530;2023-03-25T10:25:17;101170.91;;;19.74;57.53
54948;BME280;41113;41.882;12.530;2023-03-25T10:27:48;101179.94;;;19.51;60.80
54948;BME280;41113;41.882;12.530;2023-03-25T10:30:20;101176.31;;;19.59;60.35
54948;BME280;41113;41.882;12.530;2023-03-25T10:32:50;101179.25;;;19.72;60.26
54948;BME280;41113;41.882;12.530;2023-03-25T10:35:23;101176.81;;;19.77;59.91
54948;BME280;41113;41.882;12.530;2023-03-25T10:37:52;101169.06;;;19.43;58.69
54948;BME280;41113;41.882;12.530;2023-03-25T10:45:20;101171.75;;;19.28;61.02
54948;BME280;41113;41.882;12.530;2023-03-25T10:47:47;101177.94;;;19.22;61.09
54948;BME280;41113;41.882;12.530;2023-03-25T10:50:15;101163.50;;;19.14;61.41
54948;BME280;41113;41.882;12.530;2023-03-25T10:52:41;101159.88;;;18.99;61.20
54948;BME280;41113;41.882;12.530;2023-03-25T10:55:20;101157.88;;;18.84;60.75
54948;BME280;41113;41.882;12.530;2023-03-25T10:57:47;101159.59;;;18.85;61.81
54948;BME280;41113;41.882;12.530;2023-03-25T11:00:15;101154.16;;;18.85;62.08
54948;BME280;41113;41.882;12.530;2023-03-25T11:02:42;101152.97;;;18.88;62.21
54948;BME280;41113;41.882;12.530;2023-03-25T11:05:08;101149.81;;;18.99;62.18
54948;BME280;41113;41.882;12.530;2023-03-25T11:07:43;101166.19;;;19.22;61.91
54948;BME280;41113;41.882;12.530;2023-03-25T11:10:25;101164.13;;;19.24;60.91
54948;BME280;41113;41.882;12.530;2023-03-25T11:12:53;101154.94;;;19.25;61.62
54948;BME280;41113;41.882;12.530;2023-03-25T11:15:23;101152.44;;;19.38;61.32
54948;BME280;41113;41.882;12.530;2023-03-25T11:20:49;101148.94;;;19.52;60.80
54948;BME280;41113;41.882;12.530;2023-03-25T11:23:31;101147.00;;;19.38;61.27
54948;BME280;41113;41.882;12.530;2023-03-25T11:26:04;101145.47;;;19.13;61.66
54948;BME280;41113;41.882;12.530;2023-03-25T11:28:36;101142.81;;;19.05;62.20
54948;BME280;41113;41.882;12.530;2023-03-25T11:31:18;101130.66;;;18.92;62.32
54948;BME280;41113;41.882;12.530;2023-03-25T11:34:31;101135.16;;;18.77;62.55
54948;BME280;41113;41.882;12.530;2023-03-25T11:36:38;101124.84;;;18.95;62.25
54948;BME280;41113;41.882;12.530;2023-03-25T11:39:16;101119.28;;;19.12;61.88
54948;BME280;41113;41.882;12.530;2023-03-25T11:41:42;101107.97;;;19.23;60.30
54948;BME280;41113;41.882;12.530;2023-03-25T11:44:38;101113.06;;;19.26;59.88
54948;BME280;41113;41.882;12.530;2023-03-25T11:47:06;101109.31;;;19.27;60.88
54948;BME280;41113;41.882;12.530;2023-03-25T11:49:36;101101.78;;;19.29;60.84
54948;BME280;41113;41.882;12.530;2023-03-25T11:52:13;101097.78;;;19.17;59.82
54948;BME280;41113;41.882;12.530;2023-03-25T11:54:40;101092.00;;;19.20;61.07
54948;BME280;41113;41.882;12.530;2023-03-25T11:57:12;101093.31;;;19.24;60.41
54948;BME280;41113;41.882;12.530;2023-03-25T11:59:46;101094.66;;;19.28;59.88
54948;BME280;41113;41.882;12.530;2023-03-25T12:02:25;101103.97;;;19.34;59.92
54948;BME280;41113;41.882;12.530;2023-03-25T12:05:02;101094.66;;;19.28;59.72
54948;BME280;41113;41.882;12.530;2023-03-25T12:07:40;101109.22;;;19.35;59.80
54948;BME280;41113;41.882;12.530;2023-03-25T12:10:06;101099.94;;;19.44;60.04
54948;BME280;41113;41.882;12.530;2023-03-25T12:20:40;101083.38;;;19.31;58.45
54948;BME280;41113;41.882;12.530;2023-03-25T12:45:36;101049.09;;;19.22;59.36
54948;BME280;41113;41.882;12.530;2023-03-25T12:53:25;101044.88;;;19.34;59.29
54948;BME280;41113;41.882;12.530;2023-03-25T12:59:17;101035.03;;;19.33;59.77
54948;BME280;41113;41.882;12.530;2023-03-25T13:07:21;101014.31;;;19.09;59.82
54948;BME280;41113;41.882;12.530;2023-03-25T13:10:02;101014.41;;;19.16;58.67
54948;BME280;41113;41.882;12.530;2023-03-25T13:12:33;101018.16;;;19.15;59.61
54948;BME280;41113;41.882;12.530;2023-03-25T13:17:41;101011.88;;;19.14;59.49
54948;BME280;41113;41.882;12.530;2023-03-25T13:20:10;101018.53;;;19.12;59.93
54948;BME280;41113;41.882;12.530;2023-03-25T13:22:39;101017.88;;;19.10;58.87
54948;BME280;41113;41.882;12.530;2023-03-25T13:25:18;101019.09;;;19.07;59.35
54948;BME280;41113;41.882;12.530;2023-03-25T13:27:45;101017.59;;;19.05;60.18
54948;BME280;41113;41.882;12.530;2023-03-25T13:30:18;101017.94;;;19.02;60.25
54948;BME280;41113;41.882;12.530;2023-03-25T13:32:49;101017.94;;;19.02;60.07
54948;BME280;41113;41.882;12.530;2023-03-25T13:35:36;101016.53;;;18.91;60.49
54948;BME280;41113;41.882;12.530;2023-03-25T13:38:10;101011.75;;;18.93;60.50
54948;BME280;41113;41.882;12.530;2023-03-25T13:44:10;101010.81;;;19.01;60.94
54948;BME280;41113;41.882;12.530;2023-03-25T13:46:42;101021.41;;;18.95;61.19
54948;BME280;41113;41.882;12.530;2023-03-25T13:51:44;101018.75;;;18.87;61.34
54948;BME280;41113;41.882;12.530;2023-03-25T13:54:19;101021.47;;;18.87;61.37
54948;BME280;41113;41.882;12.530;2023-03-25T13:57:00;101015.19;;;18.87;61.85
54948;BME280;41113;41.882;12.530;2023-03-25T14:11:19;101029.09;;;18.69;61.98
54948;BME280;41113;41.882;12.530;2023-03-25T14:13:52;101026.19;;;18.71;62.01
54948;BME280;41113;41.882;12.530;2023-03-25T14:16:23;101014.47;;;18.70;62.06
54948;BME280;41113;41.882;12.530;2023-03-25T14:18:57;101013.13;;;18.66;61.87
54948;BME280;41113;41.882;12.530;2023-03-25T14:21:29;101010.59;;;18.64;61.87
54948;BME280;41113;41.882;12.530;2023-03-25T14:24:15;101009.75;;;18.64;62.16
54948;BME280;41113;41.882;12.530;2023-03-25T14:26:53;101000.91;;;18.62;62.31
54948;BME280;41113;41.882;12.530;2023-03-25T14:29:42;101007.06;;;18.56;62.87
54948;BME280;41113;41.882;12.530;2023-03-25T14:34:41;100986.47;;;18.53;63.99
54948;BME280;41113;41.882;12.530;2023-03-25T14:46:59;100977.28;;;18.31;64.43
54948;BME280;41113;41.882;12.530;2023-03-25T14:49:53;100966.09;;;18.26;64.98
54948;BME280;41113;41.882;12.530;2023-03-25T14:52:30;100967.50;;;18.22;64.94
54948;BME280;41113;41.882;12.530;2023-03-25T14:54:57;100962.75;;;18.16;65.34
54948;BME280;41113;41.882;12.530;2023-03-25T14:57:25;100958.53;;;18.14;65.23
54948;BME280;41113;41.882;12.530;2023-03-25T15:00:04;100954.28;;;18.11;65.66
54948;BME280;41113;41.882;12.530;2023-03-25T15:02:42;100965.16;;;18.11;65.63
54948;BME280;41113;41.882;12.530;2023-03-25T15:05:16;100958.34;;;18.15;65.35